Dades meteomassalio
Diari Summary for Abril 21, 2017 Units:  English    Metric   Both
« Previous Day
Next Day »
Diari Semanal Mensual Anual Personalitzat
  Maxima: Minima: Mijana:
Temperatura: TemperatureC °F 1.4 °F 10.7 °F
Rosada: DewpointC °F -2.6 °F 0.9 °F
Humitat: Humidity % 24 % 55 %
Velocitat del vent: WindSpeedKMH mph 0.0 mph 8 mph
Racha vent: WindSpeedGustKMH mph - -
Vent:- - SE
Pressio: PressurehPa in 1026.0 in -
Pluja: 0.0 in    
Historical Graphs
 
 
Tabular Data for Abril 21, 2017
Time Temperature Dew Point Pressure Wind Wind Speed Wind Gust Humidity Rainfall Rate (Hourly) solar Conditions
TemperatureC °F DewpointC °F PressurehPa in Calm     Humidity % HourlyPrecipMM in SolarRadiationWatts/m^2 W/m2 Conditions
00:00 7.0 °F 2.3 °F 1027.0 in Calm     72 % 0.0 in 0.0 W/m2 CLR
00:05 6.8 °F 1.9 °F 1027.0 in Calm     71 % 0.0 in 0.0 W/m2 CLR
00:10 6.7 °F 1.8 °F 1027.3 in Calm     71 % 0.0 in 0.0 W/m2 CLR
00:15 6.5 °F 1.6 °F 1027.3 in Calm     71 % 0.0 in 0.0 W/m2 CLR
00:20 6.4 °F 1.7 °F 1027.3 in Calm     72 % 0.0 in 0.0 W/m2 CLR
00:25 6.3 °F 1.8 °F 1027.3 in Calm     73 % 0.0 in 0.0 W/m2 CLR
00:30 6.2 °F 1.7 °F 1027.3 in Calm     73 % 0.0 in 0.0 W/m2 CLR
00:35 6.1 °F 1.6 °F 1027.3 in Calm     73 % 0.0 in 0.0 W/m2 CLR
00:40 5.9 °F 1.4 °F 1027.7 in Calm     73 % 0.0 in 0.0 W/m2 CLR
00:45 5.7 °F 1.2 °F 1027.7 in Calm     73 % 0.0 in 0.0 W/m2 CLR
00:50 5.5 °F 1.4 °F 1027.7 in Calm     75 % 0.0 in 0.0 W/m2 CLR
00:55 5.4 °F 1.3 °F 1027.7 in Calm     75 % 0.0 in 0.0 W/m2 CLR
01:00 5.3 °F 1.4 °F 1027.7 in Calm     76 % 0.0 in 0.0 W/m2 CLR
01:05 5.3 °F 1.4 °F 1027.7 in Calm     76 % 0.0 in 0.0 W/m2 CLR
01:10 5.3 °F 1.4 °F 1027.7 in Calm     76 % 0.0 in 0.0 W/m2 CLR
01:15 5.2 °F 1.3 °F 1027.7 in Calm     76 % 0.0 in 0.0 W/m2 CLR
01:20 5.1 °F 1.2 °F 1027.7 in Calm     76 % 0.0 in 0.0 W/m2 CLR
01:25 4.9 °F 0.9 °F 1027.7 in Calm     75 % 0.0 in 0.0 W/m2 CLR
01:30 4.8 °F 0.9 °F 1027.7 in Calm     76 % 0.0 in 0.0 W/m2 CLR
01:31 4.8 °F 0.9 °F 1027.7 in Calm     76 % 0.0 in 0.0 W/m2 CLR
01:36 4.7 °F 0.8 °F 1027.7 in Calm     76 % 0.0 in 0.0 W/m2 CLR
01:41 4.5 °F 0.8 °F 1027.7 in Calm     77 % 0.0 in 0.0 W/m2 CLR
01:46 4.3 °F 0.7 °F 1027.7 in Calm     77 % 0.0 in 0.0 W/m2 CLR
01:51 4.3 °F 0.8 °F 1028.0 in Calm     78 % 0.0 in 0.0 W/m2 CLR
01:56 4.2 °F 0.7 °F 1028.0 in Calm     78 % 0.0 in 0.0 W/m2 CLR
02:01 4.2 °F 0.8 °F 1028.0 in Calm     79 % 0.0 in 0.0 W/m2 CLR
02:06 4.0 °F 0.7 °F 1028.0 in Calm     79 % 0.0 in 0.0 W/m2 CLR
02:07 4.0 °F 0.7 °F 1028.0 in Calm     79 % 0.0 in 0.0 W/m2 CLR
02:11 3.9 °F 0.6 °F 1028.0 in Calm     79 % 0.0 in 0.0 W/m2 CLR
02:16 3.8 °F 0.7 °F 1028.0 in Calm     80 % 0.0 in 0.0 W/m2 CLR
02:21 3.7 °F 0.6 °F 1028.0 in Calm     80 % 0.0 in 0.0 W/m2 CLR
02:26 3.7 °F 0.6 °F 1028.0 in Calm     80 % 0.0 in 0.0 W/m2 CLR
02:31 3.6 °F 0.4 °F 1028.0 in Calm     80 % 0.0 in 0.0 W/m2 CLR
02:36 3.6 °F 0.6 °F 1028.0 in Calm     81 % 0.0 in 0.0 W/m2 CLR
02:41 3.4 °F 0.3 °F 1028.0 in Calm     80 % 0.0 in 0.0 W/m2 CLR
02:46 3.4 °F 0.4 °F 1027.7 in Calm     81 % 0.0 in 0.0 W/m2 CLR
02:51 3.3 °F 0.4 °F 1027.7 in Calm     81 % 0.0 in 0.0 W/m2 CLR
02:56 3.2 °F 0.2 °F 1027.7 in Calm     81 % 0.0 in 0.0 W/m2 CLR
03:01 3.0 °F 0.1 °F 1027.7 in Calm     81 % 0.0 in 0.0 W/m2 CLR
03:06 2.9 °F 0.2 °F 1027.7 in Calm     82 % 0.0 in 0.0 W/m2 CLR
03:11 2.8 °F -0.1 °F 1027.7 in Calm     81 % 0.0 in 0.0 W/m2 CLR
03:16 2.7 °F -0.1 °F 1027.7 in Calm     82 % 0.0 in 0.0 W/m2 CLR
03:21 2.7 °F -0.1 °F 1027.7 in Calm     82 % 0.0 in 0.0 W/m2 CLR
03:26 2.7 °F -0.1 °F 1027.7 in Calm     82 % 0.0 in 0.0 W/m2 CLR
03:31 2.6 °F 0.0 °F 1027.7 in Calm     83 % 0.0 in 0.0 W/m2 CLR
03:36 2.6 °F 0.0 °F 1027.7 in Calm     83 % 0.0 in 0.0 W/m2 CLR
03:41 2.6 °F 0.0 °F 1027.7 in Calm     83 % 0.0 in 0.0 W/m2 CLR
03:46 2.6 °F 0.0 °F 1027.7 in Calm     83 % 0.0 in 0.0 W/m2 CLR
03:51 2.7 °F 0.1 °F 1027.7 in Calm     83 % 0.0 in 0.0 W/m2 CLR
03:56 2.8 °F 0.2 °F 1027.7 in Calm     83 % 0.0 in 0.0 W/m2 CLR
04:01 2.8 °F 0.2 °F 1027.7 in Calm     83 % 0.0 in 0.0 W/m2 CLR
04:07 2.9 °F 0.3 °F 1027.7 in Calm     83 % 0.0 in 0.0 W/m2 CLR
04:12 2.8 °F 0.2 °F 1027.7 in Calm     83 % 0.0 in 0.0 W/m2 CLR
04:17 2.8 °F 0.2 °F 1027.7 in Calm     83 % 0.0 in 0.0 W/m2 CLR
04:22 2.8 °F 0.2 °F 1027.7 in Calm     83 % 0.0 in 0.0 W/m2 CLR
04:27 2.9 °F 0.4 °F 1027.7 in Calm     84 % 0.0 in 0.0 W/m2 CLR
04:32 3.0 °F 0.6 °F 1027.7 in Calm     84 % 0.0 in 0.0 W/m2 CLR
04:37 3.1 °F 0.4 °F 1027.7 in Calm     83 % 0.0 in 0.0 W/m2 CLR
04:42 3.1 °F 0.5 °F 1027.7 in Calm     83 % 0.0 in 0.0 W/m2 CLR
04:47 3.2 °F 0.6 °F 1027.7 in Calm     83 % 0.0 in 0.0 W/m2 CLR
04:52 3.2 °F 0.6 °F 1027.7 in Calm     83 % 0.0 in 0.0 W/m2 CLR
04:57 3.2 °F 0.8 °F 1027.7 in Calm     84 % 0.0 in 0.0 W/m2 CLR
05:02 3.3 °F 0.7 °F 1027.7 in Calm     83 % 0.0 in 0.0 W/m2 CLR
05:07 3.5 °F 0.9 °F 1027.7 in Calm     83 % 0.0 in 0.0 W/m2 CLR
05:12 3.6 °F 0.9 °F 1027.7 in Calm     83 % 0.0 in 0.0 W/m2 CLR
05:17 3.7 °F 1.1 °F 1027.7 in Calm     83 % 0.0 in 0.0 W/m2 CLR
05:22 3.8 °F 1.2 °F 1027.7 in Calm     83 % 0.0 in 0.0 W/m2 CLR
05:27 3.7 °F 0.9 °F 1027.7 in Calm     82 % 0.0 in 0.0 W/m2 CLR
05:32 3.7 °F 0.9 °F 1027.7 in Calm     82 % 0.0 in 0.0 W/m2 CLR
05:37 3.5 °F 0.7 °F 1027.7 in Calm     82 % 0.0 in 0.0 W/m2 CLR
05:42 3.4 °F 0.6 °F 1027.7 in Calm     82 % 0.0 in 0.0 W/m2 CLR
05:47 3.2 °F 0.4 °F 1027.7 in Calm     82 % 0.0 in 0.0 W/m2 CLR
05:52 3.1 °F 0.4 °F 1027.7 in Calm     83 % 0.0 in 0.0 W/m2 CLR
05:57 2.9 °F 0.3 °F 1027.7 in Calm     83 % 0.0 in 0.0 W/m2 CLR
06:02 2.8 °F 0.2 °F 1027.7 in Calm     83 % 0.0 in 0.0 W/m2 CLR
06:07 2.7 °F 0.3 °F 1027.7 in Calm     84 % 0.0 in 0.0 W/m2 CLR
06:12 2.6 °F 0.2 °F 1027.7 in Calm     84 % 0.0 in 0.0 W/m2 CLR
06:14 2.6 °F 0.1 °F 1027.7 in Calm     84 % 0.0 in 0.0 W/m2 CLR
06:19 2.5 °F 0.1 °F 1028.0 in Calm     84 % 0.0 in 0.0 W/m2 CLR
06:24 2.3 °F -0.1 °F 1028.0 in Calm     84 % 0.0 in 0.0 W/m2 CLR
06:29 2.3 °F 0.0 °F 1028.0 in Calm     85 % 0.0 in 0.0 W/m2 CLR
06:34 2.2 °F -0.3 °F 1028.0 in Calm     84 % 0.0 in 0.0 W/m2 CLR
06:39 1.9 °F -0.3 °F 1028.0 in Calm     85 % 0.0 in 0.0 W/m2 CLR
06:44 1.9 °F -0.2 °F 1028.0 in Calm     86 % 0.0 in 0.0 W/m2 CLR
06:49 1.9 °F -0.2 °F 1028.0 in Calm     86 % 0.0 in 0.0 W/m2 CLR
06:54 1.9 °F -0.2 °F 1028.0 in Calm     86 % 0.0 in 0.0 W/m2 CLR
06:59 1.8 °F -0.3 °F 1028.0 in Calm     86 % 0.0 in 0.0 W/m2 CLR
07:04 1.7 °F -0.4 °F 1028.3 in Calm     86 % 0.0 in 0.0 W/m2 OVC
07:09 1.7 °F -0.4 °F 1028.3 in Calm     86 % 0.0 in 0.0 W/m2 OVC
07:14 1.5 °F -0.6 °F 1028.3 in Calm     86 % 0.0 in 7.0 W/m2 OVC
07:19 1.4 °F -0.7 °F 1028.3 in Calm     86 % 0.0 in 9.0 W/m2 BKN
07:24 1.4 °F -0.5 °F 1028.3 in Calm     87 % 0.0 in 12.0 W/m2 BKN
07:29 1.4 °F -0.5 °F 1028.3 in Calm     87 % 0.0 in 16.0 W/m2 BKN
07:34 1.5 °F -0.4 °F 1028.7 in Calm     87 % 0.0 in 19.0 W/m2 BKN
07:39 1.5 °F -0.4 °F 1028.7 in Calm     87 % 0.0 in 23.0 W/m2 BKN
07:44 1.6 °F -0.3 °F 1028.7 in Calm     87 % 0.0 in 32.0 W/m2 BKN
07:49 1.8 °F -0.2 °F 1028.7 in Calm     87 % 0.0 in 42.0 W/m2 BKN
07:54 1.9 °F -0.1 °F 1028.7 in Calm     87 % 0.0 in 58.0 W/m2 SCT
07:59 2.1 °F 0.1 °F 1028.7 in Calm     87 % 0.0 in 72.0 W/m2 FEW
08:04 2.3 °F 0.3 °F 1028.7 in Calm     87 % 0.0 in 76.0 W/m2 FEW
08:09 2.6 °F 0.5 °F 1029.0 in Calm     86 % 0.0 in 100.0 W/m2 CLR
08:14 2.9 °F 0.6 °F 1029.0 in Calm     85 % 0.0 in 114.0 W/m2 CLR
08:19 3.2 °F 0.7 °F 1029.0 in Calm     84 % 0.0 in 130.0 W/m2 CLR
08:24 3.4 °F 1.0 °F 1029.0 in Calm     84 % 0.0 in 146.0 W/m2 CLR
08:29 3.6 °F 0.9 °F 1028.7 in Calm     83 % 0.0 in 162.0 W/m2 CLR
08:34 3.7 °F 1.1 °F 1028.7 in Calm     83 % 0.0 in 178.0 W/m2 CLR
08:39 4.1 °F 1.3 °F 1029.0 in Calm     82 % 0.0 in 197.0 W/m2 CLR
08:44 4.5 °F 1.5 °F 1029.0 in Calm     81 % 0.0 in 220.0 W/m2 CLR
08:49 5.1 °F 1.9 °F 1029.0 in Calm     80 % 0.0 in 236.0 W/m2 CLR
08:54 5.5 °F 2.2 °F 1029.0 in Calm     79 % 0.0 in 253.0 W/m2 CLR
08:59 6.1 °F 2.4 °F 1029.0 in Calm     77 % 0.0 in 269.0 W/m2 CLR
09:04 6.5 °F 2.2 °F 1029.0 in Calm     74 % 0.0 in 288.0 W/m2 CLR
09:09 6.7 °F 2.2 °F 1029.0 in Calm     73 % 0.0 in 58.0 W/m2 CLR
09:14 7.1 °F 2.3 °F 1029.0 in Calm     72 % 0.0 in 278.0 W/m2 CLR
09:19 7.3 °F 1.8 °F 1029.0 in Calm     68 % 0.0 in 338.0 W/m2 CLR
09:24 7.6 °F 1.6 °F 1029.0 in Calm     66 % 0.0 in 352.0 W/m2 CLR
09:29 8.0 °F 1.8 °F 1029.0 in Calm     65 % 0.0 in 373.0 W/m2 CLR
09:34 8.5 °F 1.8 °F 1029.0 in Calm     63 % 0.0 in 388.0 W/m2 CLR
09:39 9.0 °F 1.9 °F 1029.0 in Calm     61 % 0.0 in 404.0 W/m2 CLR
09:44 9.5 °F 2.1 °F 1029.0 in Calm     60 % 0.0 in 422.0 W/m2 CLR
09:49 10.0 °F 2.1 °F 1029.0 in Calm     58 % 0.0 in 438.0 W/m2 CLR
09:54 10.5 °F 2.1 °F 1029.0 in Calm     56 % 0.0 in 455.0 W/m2 CLR
09:59 10.8 °F 2.2 °F 1029.0 in Calm     55 % 0.0 in 469.0 W/m2 CLR
10:04 11.2 °F 2.4 °F 1029.0 in Calm     55 % 0.0 in 483.0 W/m2 CLR
10:09 11.6 °F 2.6 °F 1028.7 in Calm     54 % 0.0 in 504.0 W/m2 CLR
10:14 12.1 °F 2.5 °F 1028.7 in Calm     52 % 0.0 in 517.0 W/m2 CLR
10:19 12.2 °F 2.7 °F 1028.7 in Calm     52 % 0.0 in 534.0 W/m2 CLR
10:24 12.3 °F 2.7 °F 1028.7 in NE 3.7 mph   52 % 0.0 in 548.0 W/m2 CLR
10:29 12.6 °F 2.7 °F 1028.7 in Calm     51 % 0.0 in 568.0 W/m2 CLR
10:34 12.8 °F 2.4 °F 1029.0 in Calm     49 % 0.0 in 585.0 W/m2 CLR
10:39 13.1 °F 2.6 °F 1029.0 in Calm     49 % 0.0 in 592.0 W/m2 CLR
10:44 13.7 °F 3.1 °F 1028.7 in ENE 3.7 mph 3.7 mph 49 % 0.0 in 613.0 W/m2 CLR
10:49 14.0 °F 2.6 °F 1028.7 in Calm     46 % 0.0 in 628.0 W/m2 CLR
10:54 14.1 °F 2.7 °F 1029.0 in Calm     46 % 0.0 in 643.0 W/m2 CLR
10:59 14.3 °F 2.2 °F 1029.0 in Calm     44 % 0.0 in 657.0 W/m2 CLR
11:04 14.6 °F 1.8 °F 1028.7 in Calm     42 % 0.0 in 668.0 W/m2 CLR
11:09 14.8 °F 1.3 °F 1028.7 in Calm     40 % 0.0 in 677.0 W/m2 CLR
11:14 15.2 °F 0.6 °F 1028.7 in NE 6.4 mph 6.4 mph 37 % 0.0 in 689.0 W/m2 CLR
11:19 15.3 °F 1.4 °F 1028.7 in Calm     39 % 0.0 in 701.0 W/m2 CLR
11:24 15.4 °F 1.6 °F 1028.7 in Calm     39 % 0.0 in 708.0 W/m2 CLR
11:29 15.8 °F 1.5 °F 1028.7 in ENE 7.4 mph 7.4 mph 38 % 0.0 in 721.0 W/m2 CLR
11:34 15.8 °F 1.2 °F 1028.7 in Calm   0.5 mph 37 % 0.0 in 735.0 W/m2 CLR
11:40 15.9 °F 0.4 °F 1028.7 in ENE 9.3 mph 9.3 mph 35 % 0.0 in 752.0 W/m2 CLR
11:45 15.8 °F -0.8 °F 1028.7 in ENE 9.3 mph   32 % 0.0 in 756.0 W/m2 CLR
11:50 16.1 °F 0.2 °F 1028.7 in ENE 5.6 mph 5.6 mph 34 % 0.0 in 766.0 W/m2 CLR
11:55 16.3 °F -0.1 °F 1028.7 in Calm   0.5 mph 33 % 0.0 in 777.0 W/m2 CLR
12:00 16.4 °F 0.1 °F 1028.7 in ESE 11.3 mph 11.3 mph 33 % 0.0 in 791.0 W/m2 CLR
12:05 16.5 °F -0.3 °F 1028.7 in ENE 7.4 mph 7.4 mph 32 % 0.0 in 798.0 W/m2 CLR
12:10 16.9 °F 0.6 °F 1028.7 in Calm     33 % 0.0 in 810.0 W/m2 CLR
12:15 17.1 °F -0.6 °F 1028.3 in South 9.3 mph 9.3 mph 30 % 0.0 in 816.0 W/m2 CLR
12:20 17.0 °F -0.3 °F 1028.3 in South 1.9 mph   31 % 0.0 in 819.0 W/m2 CLR
12:25 17.0 °F -0.3 °F 1028.3 in ENE 8.0 mph 8.0 mph 31 % 0.0 in 830.0 W/m2 CLR
12:30 17.2 °F -0.6 °F 1028.3 in West 5.6 mph 5.6 mph 30 % 0.0 in 840.0 W/m2 CLR
12:35 17.4 °F -0.8 °F 1028.3 in SW 11.3 mph 11.3 mph 29 % 0.0 in 846.0 W/m2 CLR
12:40 17.5 °F -1.2 °F 1028.0 in Calm     28 % 0.0 in 853.0 W/m2 CLR
12:45 17.8 °F -0.4 °F 1028.0 in East 7.4 mph 7.4 mph 29 % 0.0 in 858.0 W/m2 CLR
12:50 17.8 °F -0.9 °F 1028.0 in East 11.1 mph 11.1 mph 28 % 0.0 in 865.0 W/m2 CLR
12:55 17.8 °F -0.9 °F 1028.0 in SE 14.5 mph 14.5 mph 28 % 0.0 in 872.0 W/m2 CLR
13:00 17.6 °F -1.7 °F 1028.0 in ENE 5.6 mph 5.6 mph 27 % 0.0 in 874.0 W/m2 CLR
13:05 17.7 °F -1.1 °F 1028.0 in ENE 7.4 mph 7.4 mph 28 % 0.0 in 879.0 W/m2 CLR
13:10 17.9 °F -1.4 °F 1028.0 in East 16.7 mph 16.7 mph 27 % 0.0 in 881.0 W/m2 CLR
13:15 18.1 °F -2.3 °F 1027.7 in ENE 13.0 mph 13.0 mph 25 % 0.0 in 882.0 W/m2 CLR
13:20 18.4 °F -2.6 °F 1027.7 in ENE 5.6 mph 5.6 mph 24 % 0.0 in 872.0 W/m2 CLR
13:25 18.6 °F -2.4 °F 1027.7 in SE 18.5 mph 18.5 mph 24 % 0.0 in 893.0 W/m2 CLR
13:30 18.4 °F -1.9 °F 1027.7 in ESE 22.2 mph 22.2 mph 25 % 0.0 in 900.0 W/m2 CLR
13:35 18.6 °F -2.4 °F 1027.7 in ESE 16.7 mph 16.7 mph 24 % 0.0 in 891.0 W/m2 CLR
13:40 18.7 °F -1.7 °F 1027.7 in ESE 16.7 mph 16.7 mph 25 % 0.0 in 896.0 W/m2 CLR
13:45 18.6 °F -1.8 °F 1027.7 in SE 22.2 mph 22.2 mph 25 % 0.0 in 904.0 W/m2 CLR
13:50 18.6 °F -1.9 °F 1027.7 in ESE 14.5 mph 14.5 mph 25 % 0.0 in 904.0 W/m2 CLR
13:55 18.6 °F -1.8 °F 1027.3 in East 9.3 mph 9.3 mph 25 % 0.0 in 904.0 W/m2 CLR
14:00 18.7 °F -1.8 °F 1027.3 in SE 14.8 mph 14.8 mph 25 % 0.0 in 905.0 W/m2 CLR
14:05 18.7 °F -1.2 °F 1027.3 in ESE 25.9 mph 25.9 mph 26 % 0.0 in 905.0 W/m2 CLR
14:10 18.8 °F -1.7 °F 1027.3 in ENE 16.7 mph 16.7 mph 25 % 0.0 in 904.0 W/m2 CLR
14:15 18.7 °F -1.2 °F 1027.3 in ESE 14.5 mph 14.5 mph 26 % 0.0 in 904.0 W/m2 CLR
14:20 18.7 °F -0.7 °F 1027.3 in SE 20.4 mph 20.4 mph 27 % 0.0 in 898.0 W/m2 CLR
14:25 18.6 °F -0.3 °F 1027.0 in ESE 14.8 mph 14.8 mph 28 % 0.0 in 896.0 W/m2 CLR
14:30 18.8 °F 0.3 °F 1027.0 in SSE 19.3 mph 19.3 mph 29 % 0.0 in 893.0 W/m2 CLR
14:35 18.5 °F 0.6 °F 1027.0 in ESE 22.2 mph 22.2 mph 30 % 0.0 in 889.0 W/m2 CLR
14:40 18.6 °F 1.1 °F 1027.0 in SE 20.4 mph 20.4 mph 31 % 0.0 in 886.0 W/m2 CLR
14:45 18.6 °F 1.6 °F 1027.0 in ESE 18.5 mph 18.5 mph 32 % 0.0 in 881.0 W/m2 CLR
14:50 18.7 °F 2.1 °F 1027.0 in ESE 25.7 mph 25.7 mph 33 % 0.0 in 879.0 W/m2 CLR
14:55 18.6 °F 1.9 °F 1027.0 in South 13.0 mph 13.0 mph 33 % 0.0 in 875.0 W/m2 CLR
15:00 18.6 °F 2.0 °F 1027.0 in ESE 31.5 mph 31.5 mph 33 % 0.0 in 863.0 W/m2 CLR
15:05 18.4 °F 2.3 °F 1027.0 in ESE 14.8 mph 14.8 mph 34 % 0.0 in 858.0 W/m2 CLR
15:10 18.6 °F 3.2 °F 1027.0 in SSE 20.4 mph 20.4 mph 36 % 0.0 in 854.0 W/m2 CLR
15:12 18.8 °F 3.4 °F 1027.0 in East 25.9 mph 25.9 mph 36 % 0.0 in 849.0 W/m2 CLR
15:17 18.7 °F 3.3 °F 1027.0 in East 24.1 mph 24.1 mph 36 % 0.0 in 842.0 W/m2 CLR
15:22 18.6 °F 3.2 °F 1027.0 in East 22.2 mph 22.2 mph 36 % 0.0 in 838.0 W/m2 CLR
15:27 18.6 °F 3.9 °F 1026.6 in East 18.5 mph 18.5 mph 38 % 0.0 in 837.0 W/m2 CLR
15:32 18.4 °F 3.5 °F 1026.6 in ESE 22.2 mph 22.2 mph 37 % 0.0 in 824.0 W/m2 CLR
15:37 18.6 °F 3.9 °F 1026.6 in ESE 27.4 mph 27.4 mph 38 % 0.0 in 817.0 W/m2 CLR
15:42 18.4 °F 3.1 °F 1026.6 in ESE 24.1 mph 24.1 mph 36 % 0.0 in 810.0 W/m2 CLR
15:47 18.6 °F 3.6 °F 1026.6 in ESE 24.1 mph 24.1 mph 37 % 0.0 in 802.0 W/m2 CLR
15:52 18.6 °F 3.9 °F 1026.3 in SE 16.7 mph 16.7 mph 38 % 0.0 in 793.0 W/m2 CLR
15:57 18.4 °F 3.5 °F 1026.3 in East 22.2 mph 22.2 mph 37 % 0.0 in 784.0 W/m2 CLR
16:02 18.3 °F 3.4 °F 1026.3 in SE 25.7 mph 25.7 mph 37 % 0.0 in 773.0 W/m2 CLR
16:07 18.3 °F 3.3 °F 1026.3 in SE 24.1 mph 24.1 mph 37 % 0.0 in 766.0 W/m2 CLR
16:12 18.5 °F 3.5 °F 1026.3 in SE 25.9 mph 25.9 mph 37 % 0.0 in 761.0 W/m2 CLR
16:17 18.2 °F 3.3 °F 1026.3 in ESE 27.8 mph 27.8 mph 37 % 0.0 in 744.0 W/m2 CLR
16:22 18.4 °F 3.4 °F 1026.3 in SE 25.9 mph 25.9 mph 37 % 0.0 in 729.0 W/m2 CLR
16:27 18.6 °F 3.6 °F 1026.3 in SE 24.1 mph 24.1 mph 37 % 0.0 in 724.0 W/m2 CLR
16:32 18.7 °F 2.9 °F 1026.3 in ESE 27.4 mph 27.4 mph 35 % 0.0 in 714.0 W/m2 CLR
16:42 18.3 °F 2.9 °F 1026.3 in SSE 25.9 mph 25.9 mph 36 % 0.0 in 689.0 W/m2 CLR
16:47 18.3 °F 3.4 °F 1026.3 in SE 25.9 mph 25.9 mph 37 % 0.0 in 680.0 W/m2 CLR
16:52 18.3 °F 2.9 °F 1026.3 in ESE 30.6 mph 30.6 mph 36 % 0.0 in 671.0 W/m2 CLR
16:57 17.9 °F 3.1 °F 1026.3 in SE 22.2 mph 22.2 mph 37 % 0.0 in 657.0 W/m2 CLR
17:02 18.0 °F 3.1 °F 1026.3 in East 25.9 mph 25.9 mph 37 % 0.0 in 642.0 W/m2 CLR
17:07 17.7 °F 3.2 °F 1026.3 in SE 33.3 mph 33.3 mph 38 % 0.0 in 629.0 W/m2 CLR
17:12 17.8 °F 3.6 °F 1026.0 in East 22.2 mph 22.2 mph 39 % 0.0 in 613.0 W/m2 CLR
17:17 18.1 °F 3.9 °F 1026.0 in ESE 20.9 mph 20.9 mph 39 % 0.0 in 601.0 W/m2 CLR
17:22 17.9 °F 3.7 °F 1026.3 in SE 25.9 mph 25.9 mph 39 % 0.0 in 587.0 W/m2 CLR
17:27 17.8 °F 4.1 °F 1026.0 in ESE 29.6 mph 29.6 mph 40 % 0.0 in 570.0 W/m2 CLR
17:32 17.4 °F 3.7 °F 1026.3 in SE 31.5 mph 31.5 mph 40 % 0.0 in 557.0 W/m2 CLR
17:37 17.4 °F 4.1 °F 1026.3 in SE 22.2 mph 22.2 mph 41 % 0.0 in 543.0 W/m2 CLR
17:42 17.6 °F 3.8 °F 1026.3 in SE 37.0 mph 37.0 mph 40 % 0.0 in 529.0 W/m2 CLR
17:47 17.2 °F 3.8 °F 1026.3 in ESE 25.9 mph 25.9 mph 41 % 0.0 in 512.0 W/m2 CLR
17:52 17.3 °F 3.9 °F 1026.3 in ESE 29.0 mph 29.0 mph 41 % 0.0 in 496.0 W/m2 CLR
17:53 17.3 °F 3.9 °F 1026.3 in ESE 29.6 mph 29.6 mph 41 % 0.0 in 496.0 W/m2 CLR
17:58 17.1 °F 3.7 °F 1026.3 in SE 29.6 mph 29.6 mph 41 % 0.0 in 478.0 W/m2 CLR
18:03 17.2 °F 3.4 °F 1026.3 in ESE 29.6 mph 29.6 mph 40 % 0.0 in 462.0 W/m2 CLR
18:08 17.3 °F 3.6 °F 1026.3 in SE 33.3 mph 33.3 mph 40 % 0.0 in 448.0 W/m2 CLR
18:13 17.4 °F 3.3 °F 1026.3 in ESE 22.5 mph 22.5 mph 39 % 0.0 in 432.0 W/m2 CLR
18:18 17.1 °F 3.1 °F 1026.3 in SE 20.4 mph 20.4 mph 39 % 0.0 in 418.0 W/m2 CLR
18:23 17.2 °F 3.1 °F 1026.3 in SSE 29.6 mph 29.6 mph 39 % 0.0 in 401.0 W/m2 CLR
18:28 17.2 °F 2.8 °F 1026.3 in SE 29.6 mph 29.6 mph 38 % 0.0 in 383.0 W/m2 CLR
18:33 17.1 °F 3.1 °F 1026.3 in SE 20.4 mph 20.4 mph 39 % 0.0 in 369.0 W/m2 CLR
18:38 17.2 °F 2.7 °F 1026.3 in SE 27.8 mph 27.8 mph 38 % 0.0 in 352.0 W/m2 CLR
18:43 17.1 °F 2.7 °F 1026.3 in SSE 24.1 mph 24.1 mph 38 % 0.0 in 332.0 W/m2 CLR
18:48 17.1 °F 2.6 °F 1026.6 in SSE 22.5 mph 22.5 mph 38 % 0.0 in 318.0 W/m2 CLR
18:53 17.0 °F 2.6 °F 1026.6 in SE 27.8 mph 27.8 mph 38 % 0.0 in 301.0 W/m2 CLR
18:58 17.1 °F 2.7 °F 1026.6 in SE 18.5 mph 18.5 mph 38 % 0.0 in 285.0 W/m2 CLR
19:03 16.9 °F 2.5 °F 1026.6 in SSE 20.4 mph 20.4 mph 38 % 0.0 in 267.0 W/m2 CLR
19:08 16.9 °F 2.2 °F 1026.6 in SSE 22.2 mph 22.2 mph 37 % 0.0 in 250.0 W/m2 CLR
19:13 16.9 °F 2.1 °F 1026.6 in SE 24.1 mph 24.1 mph 37 % 0.0 in 234.0 W/m2 CLR
19:18 16.8 °F 2.1 °F 1026.6 in SSE 16.7 mph 16.7 mph 37 % 0.0 in 214.0 W/m2 CLR
19:23 16.8 °F 2.1 °F 1026.6 in SSW 18.5 mph 18.5 mph 37 % 0.0 in 197.0 W/m2 CLR
19:28 16.8 °F 1.3 °F 1026.6 in SE 20.4 mph 20.4 mph 35 % 0.0 in 176.0 W/m2 CLR
19:33 16.7 °F 0.7 °F 1026.3 in SE 19.3 mph 19.3 mph 34 % 0.0 in 156.0 W/m2 CLR
19:38 16.6 °F 0.3 °F 1026.6 in SSE 20.4 mph 20.4 mph 33 % 0.0 in 139.0 W/m2 CLR
19:43 16.6 °F 0.3 °F 1026.6 in SSE 14.5 mph 14.5 mph 33 % 0.0 in 121.0 W/m2 CLR
19:48 16.4 °F 0.1 °F 1026.6 in South 22.2 mph 22.2 mph 33 % 0.0 in 102.0 W/m2 CLR
19:53 16.4 °F -0.4 °F 1026.6 in SSE 16.7 mph 16.7 mph 32 % 0.0 in 86.0 W/m2 CLR
19:58 16.1 °F -0.6 °F 1026.6 in SSE 19.3 mph 19.3 mph 32 % 0.0 in 72.0 W/m2 FEW
20:03 16.0 °F -0.3 °F 1026.6 in SSE 18.5 mph 18.5 mph 33 % 0.0 in 46.0 W/m2 SCT
20:08 15.9 °F -0.4 °F 1026.6 in SSE 14.8 mph 14.8 mph 33 % 0.0 in 44.0 W/m2 BKN
20:14 15.8 °F -0.4 °F 1026.6 in South 12.9 mph 12.9 mph 33 % 0.0 in 33.0 W/m2 BKN
20:19 15.8 °F -0.5 °F 1026.6 in SSE 18.5 mph 18.5 mph 33 % 0.0 in 23.0 W/m2 BKN
20:24 15.7 °F -0.6 °F 1026.6 in SSE 13.0 mph 13.0 mph 33 % 0.0 in 16.0 W/m2 BKN
20:29 15.5 °F -0.7 °F 1026.6 in SSE 13.0 mph 13.0 mph 33 % 0.0 in 12.0 W/m2 BKN
20:34 15.3 °F -1.3 °F 1026.6 in SSE 18.5 mph 18.5 mph 32 % 0.0 in 11.0 W/m2 BKN
20:39 15.1 °F -1.1 °F 1026.6 in SSE 14.8 mph 14.8 mph 33 % 0.0 in 9.0 W/m2 BKN
20:44 14.9 °F -1.2 °F 1026.6 in SE 14.8 mph 14.8 mph 33 % 0.0 in 5.0 W/m2 BKN
20:49 14.8 °F -1.3 °F 1026.6 in SSE 9.3 mph 9.3 mph 33 % 0.0 in 0.0 W/m2 OVC
20:54 14.6 °F -1.5 °F 1027.0 in SSE 9.3 mph 9.3 mph 33 % 0.0 in 0.0 W/m2 OVC
20:59 14.4 °F -1.3 °F 1027.0 in SSE 9.3 mph 9.3 mph 34 % 0.0 in 0.0 W/m2 CLR
21:04 14.2 °F -0.7 °F 1027.0 in SSE 13.0 mph 13.0 mph 36 % 0.0 in 0.0 W/m2 CLR
21:09 14.0 °F -0.1 °F 1027.0 in SSE 13.0 mph 13.0 mph 38 % 0.0 in 0.0 W/m2 CLR
21:14 13.7 °F 0.0 °F 1027.0 in SSE 13.0 mph 13.0 mph 39 % 0.0 in 0.0 W/m2 CLR
21:19 13.5 °F 0.2 °F 1027.0 in SE 9.3 mph 9.3 mph 40 % 0.0 in 0.0 W/m2 CLR
21:24 13.3 °F 0.3 °F 1027.3 in SE 13.0 mph 13.0 mph 41 % 0.0 in 0.0 W/m2 CLR
21:29 13.1 °F 0.1 °F 1027.3 in SSE 11.1 mph 11.1 mph 41 % 0.0 in 0.0 W/m2 CLR
21:34 12.9 °F 0.0 °F 1027.3 in SE 9.3 mph 9.3 mph 41 % 0.0 in 0.0 W/m2 CLR
21:39 12.8 °F 0.2 °F 1027.3 in SSE 9.7 mph 9.7 mph 42 % 0.0 in 0.0 W/m2 CLR
21:44 12.7 °F 0.1 °F 1027.3 in SE 7.4 mph 7.4 mph 42 % 0.0 in 0.0 W/m2 CLR
21:49 12.6 °F -0.1 °F 1027.3 in SSE 11.1 mph 11.1 mph 42 % 0.0 in 0.0 W/m2 CLR
21:54 12.6 °F -0.1 °F 1027.3 in SE 9.3 mph 9.3 mph 42 % 0.0 in 0.0 W/m2 CLR
21:55 12.6 °F -0.1 °F 1027.3 in SE 9.3 mph 9.3 mph 42 % 0.0 in 0.0 W/m2 CLR
22:00 12.4 °F -0.1 °F 1027.7 in SSE 5.6 mph 5.6 mph 42 % 0.0 in 0.0 W/m2 CLR
22:05 12.3 °F -0.3 °F 1027.7 in SE 7.4 mph 7.4 mph 42 % 0.0 in 0.0 W/m2 CLR
22:10 12.2 °F -0.1 °F 1027.7 in SSE 5.6 mph 5.6 mph 43 % 0.0 in 0.0 W/m2 CLR
22:15 12.1 °F -0.2 °F 1028.0 in Calm     43 % 0.0 in 0.0 W/m2 CLR
22:20 11.9 °F -0.3 °F 1028.0 in Calm     43 % 0.0 in 0.0 W/m2 CLR
22:25 11.7 °F -0.2 °F 1028.0 in Calm     44 % 0.0 in 0.0 W/m2 CLR
22:30 11.3 °F -0.2 °F 1028.0 in Calm     45 % 0.0 in 0.0 W/m2 CLR
22:35 11.0 °F -0.2 °F 1028.0 in Calm     46 % 0.0 in 0.0 W/m2 CLR
22:40 10.9 °F 0.1 °F 1028.0 in Calm     47 % 0.0 in 0.0 W/m2 CLR
22:45 10.9 °F 0.0 °F 1028.0 in Calm     47 % 0.0 in 0.0 W/m2 CLR
22:50 10.8 °F -0.1 °F 1028.0 in Calm     47 % 0.0 in 0.0 W/m2 CLR
22:55 10.6 °F -0.3 °F 1028.0 in Calm     47 % 0.0 in 0.0 W/m2 CLR
23:00 10.3 °F -0.2 °F 1028.0 in Calm     48 % 0.0 in 0.0 W/m2 CLR
23:05 10.1 °F -0.4 °F 1028.0 in Calm     48 % 0.0 in 0.0 W/m2 CLR
23:10 9.8 °F -0.4 °F 1028.0 in Calm     49 % 0.0 in 0.0 W/m2 CLR
23:15 9.6 °F -0.3 °F 1028.0 in Calm     50 % 0.0 in 0.0 W/m2 CLR
23:20 9.3 °F -0.3 °F 1028.0 in Calm     51 % 0.0 in 0.0 W/m2 CLR
23:25 9.0 °F -0.6 °F 1028.0 in Calm     51 % 0.0 in 0.0 W/m2 CLR
23:30 8.7 °F -0.7 °F 1028.0 in Calm     52 % 0.0 in 0.0 W/m2 CLR
23:35 8.3 °F -0.8 °F 1028.0 in Calm     53 % 0.0 in 0.0 W/m2 CLR
23:40 8.1 °F -0.4 °F 1028.3 in Calm     55 % 0.0 in 0.0 W/m2 CLR
23:45 8.2 °F -0.3 °F 1028.3 in Calm     55 % 0.0 in 0.0 W/m2 CLR
23:50 8.1 °F -0.4 °F 1028.3 in Calm     55 % 0.0 in 0.0 W/m2 CLR
23:55 8.0 °F -0.3 °F 1028.3 in Calm     56 % 0.0 in 0.0 W/m2 CLR
Lo Temps de Massalio
Compliments of Weather Underground - 1.25 mb